Terminal Aerodrome Forecast
Issued by NWS Brownsville, TX

Home | Current Version | Previous Version | Text Only | Print | Product List | Glossary On
Versions: 1 2 3 4 5 6 7 8 9 10 11 12 13 14 15 16 17 18 19 20 21 22 23 24 25 26 27
000
FTUS44 KBRO 011600 AAG
TAFHRL
TAF AMD
KHRL 011600Z 0116/0212 16017G23KT 6SM -SHRA SCT018 BKN060 OVC100
      TEMPO 0116/0118 16015KT BKN015
     FM011900 13015KT P6SM VCSH SCT030 BKN040 BKN150
     FM020100 13009KT P6SM SCT040 BKN150=

USA.gov is the U.S. government's official web portal to all federal, state and local government web resources and services.